Time;durP1;ratioP1;P1;durP2;ratioP2;P2;SDS_P1;SDS_P2;PMS_P1;PMS_P2;Temp;Humidity;BMP_temperature;BMP_pressure;BME280_temperature;BME280_humidity;BME280_pressure;Samples;Min_cycle;Max_cycle;Signal;HPM_P1;HPM_P2
2021/05/28 00:01:47;;;;;;;22.55;10.98;;;;;;;5.61;100.00;102274.06;5100937;28;20024;-65
2021/05/28 00:04:12;;;;;;;23.35;10.65;;;;;;;5.55;100.00;102277.31;5104297;28;20088;-63
2021/05/28 00:06:37;;;;;;;24.77;11.05;;;;;;;5.50;100.00;102284.06;5101981;28;20046;-63
2021/05/28 00:09:05;;;;;;;25.15;11.38;;;;;;;5.40;100.00;102285.31;5102392;28;20020;-64
2021/05/28 00:11:30;;;;;;;26.45;13.05;;;;;;;5.51;100.00;102280.63;5103040;28;20489;-63
2021/05/28 00:13:55;;;;;;;28.92;14.32;;;;;;;5.47;100.00;102282.19;5101531;28;20020;-63
2021/05/28 00:16:21;;;;;;;24.83;12.77;;;;;;;5.48;100.00;102286.59;5106552;28;20031;-63
2021/05/28 00:18:46;;;;;;;24.65;10.82;;;;;;;5.41;100.00;102280.16;5104915;28;20056;-63
2021/05/28 00:21:11;;;;;;;23.75;10.93;;;;;;;5.42;100.00;102286.31;5107538;28;20023;-64
2021/05/28 00:23:37;;;;;;;22.27;10.38;;;;;;;5.29;100.00;102286.56;5105978;28;20039;-64
2021/05/28 00:26:02;;;;;;;22.88;10.65;;;;;;;5.28;100.00;102283.00;5106318;28;20489;-63
2021/05/28 00:28:27;;;;;;;23.33;10.40;;;;;;;5.33;100.00;102288.47;5107461;27;20438;-63
2021/05/28 00:30:53;;;;;;;23.42;10.73;;;;;;;5.21;100.00;102296.66;5105072;28;20035;-63
2021/05/28 00:33:18;;;;;;;23.27;10.43;;;;;;;5.20;100.00;102292.25;5108036;28;20374;-63
2021/05/28 00:35:43;;;;;;;21.63;10.20;;;;;;;5.15;100.00;102286.75;5104805;28;20036;-63
2021/05/28 00:38:09;;;;;;;21.05;10.05;;;;;;;5.17;100.00;102292.06;5107153;28;20017;-63
2021/05/28 00:40:34;;;;;;;22.65;9.82;;;;;;;5.13;100.00;102282.28;5105933;28;20023;-63
2021/05/28 00:43:00;;;;;;;21.52;10.00;;;;;;;5.10;100.00;102290.88;5105466;28;20036;-63
2021/05/28 00:45:25;;;;;;;22.80;10.35;;;;;;;5.05;100.00;102289.75;5107460;28;20074;-64
2021/05/28 00:47:50;;;;;;;20.30;9.45;;;;;;;4.99;100.00;102279.84;5104315;28;20024;-63
2021/05/28 00:50:16;;;;;;;21.52;10.05;;;;;;;5.00;100.00;102283.38;5107759;28;20028;-63
2021/05/28 00:52:41;;;;;;;22.58;10.20;;;;;;;5.01;100.00;102285.16;5105323;28;20443;-63
2021/05/28 00:55:07;;;;;;;22.83;10.43;;;;;;;4.99;100.00;102281.56;5106225;28;20031;-63
2021/05/28 00:57:34;;;;;;;21.23;9.80;;;;;;;4.90;100.00;102284.63;5105809;28;20032;-63
2021/05/28 01:00:01;;;;;;;22.58;9.93;;;;;;;4.83;100.00;102283.41;5105378;28;20099;-63
2021/05/28 01:02:27;;;;;;;22.13;10.90;;;;;;;4.76;100.00;102286.56;5107003;28;20041;-63
2021/05/28 01:04:53;;;;;;;22.67;10.90;;;;;;;4.71;100.00;102288.03;5103921;28;20467;-63
2021/05/28 01:07:18;;;;;;;22.73;10.25;;;;;;;4.67;100.00;102286.06;5107631;28;20493;-63
2021/05/28 01:09:44;;;;;;;21.90;10.48;;;;;;;4.69;100.00;102279.22;5104130;28;20028;-63
2021/05/28 01:12:10;;;;;;;22.20;10.48;;;;;;;4.68;100.00;102282.66;5106389;28;20073;-63
2021/05/28 01:14:36;;;;;;;25.15;12.52;;;;;;;4.71;100.00;102283.69;5103776;28;20466;-63
2021/05/28 01:17:02;;;;;;;24.52;11.57;;;;;;;4.63;100.00;102284.13;5105283;28;20041;-63
2021/05/28 01:19:27;;;;;;;24.77;12.02;;;;;;;4.57;100.00;102289.94;5106683;28;20031;-63
2021/05/28 01:21:55;;;;;;;25.33;13.30;;;;;;;4.61;100.00;102286.66;5103919;28;20028;-63
2021/05/28 01:24:20;;;;;;;26.45;14.77;;;;;;;4.56;100.00;102290.78;5106985;28;20049;-63
2021/05/28 01:26:46;;;;;;;24.95;13.63;;;;;;;4.54;100.00;102295.94;5103341;28;20437;-63
2021/05/28 01:29:11;;;;;;;26.92;14.57;;;;;;;4.52;100.00;102292.31;5106552;28;20035;-63
2021/05/28 01:31:37;;;;;;;27.42;15.02;;;;;;;4.55;100.00;102296.81;5104901;28;20826;-63
2021/05/28 01:34:03;;;;;;;26.75;14.07;;;;;;;4.52;100.00;102287.09;5104961;28;20554;-63
2021/05/28 01:36:28;;;;;;;25.15;13.13;;;;;;;4.48;100.00;102282.50;5106035;28;20363;-63
2021/05/28 01:38:54;;;;;;;24.38;12.65;;;;;;;4.46;100.00;102289.38;5103612;28;20020;-63
2021/05/28 01:41:19;;;;;;;25.15;12.43;;;;;;;4.42;100.00;102276.94;5107468;28;20165;-63
2021/05/28 01:43:44;;;;;;;26.05;12.45;;;;;;;4.37;100.00;102286.31;5103331;28;20019;-63
2021/05/28 01:46:10;;;;;;;24.58;12.10;;;;;;;4.33;100.00;102281.72;5105705;28;20020;-63
2021/05/28 01:48:35;;;;;;;23.88;12.55;;;;;;;4.37;100.00;102286.31;5104866;28;20531;-63
2021/05/28 01:51:01;;;;;;;25.02;11.45;;;;;;;4.31;100.00;102286.88;5103073;28;20028;-63
2021/05/28 01:53:27;;;;;;;24.23;11.68;;;;;;;4.31;100.00;102288.56;5106202;28;20366;-63
2021/05/28 01:55:54;;;;;;;23.15;11.55;;;;;;;4.22;100.00;102285.47;5103074;28;20039;-63
2021/05/28 01:58:21;;;;;;;24.05;11.30;;;;;;;4.15;100.00;102277.31;5106625;28;20059;-63
2021/05/28 02:00:48;;;;;;;22.08;11.18;;;;;;;4.11;100.00;102285.81;5102780;28;20115;-63
2021/05/28 02:03:14;;;;;;;22.42;10.95;;;;;;;4.09;100.00;102290.06;5106141;28;20023;-63
2021/05/28 02:05:40;;;;;;;23.63;11.40;;;;;;;4.06;100.00;102288.97;5103915;28;20127;-63
2021/05/28 02:08:06;;;;;;;22.15;10.85;;;;;;;4.01;100.00;102286.13;5104454;28;20052;-63
2021/05/28 02:10:32;;;;;;;22.65;11.43;;;;;;;4.02;100.00;102298.41;5105037;28;20034;-63
2021/05/28 02:12:58;;;;;;;22.42;10.35;;;;;;;3.98;100.00;102283.34;5103508;28;20020;-63
2021/05/28 02:15:24;;;;;;;23.67;11.80;;;;;;;4.00;100.00;102286.94;5105979;28;20032;-63
2021/05/28 02:17:50;;;;;;;23.60;11.40;;;;;;;3.99;100.00;102299.13;5102695;28;20452;-63
2021/05/28 02:20:16;;;;;;;22.92;10.73;;;;;;;3.97;100.00;102289.38;5105951;28;20028;-63
2021/05/28 02:22:42;;;;;;;22.63;10.90;;;;;;;3.86;100.00;102288.81;5103183;28;20020;-63
2021/05/28 02:25:08;;;;;;;25.33;14.32;;;;;;;3.79;100.00;102291.91;5104661;28;20057;-63
2021/05/28 02:27:34;;;;;;;25.77;14.38;;;;;;;3.77;100.00;102299.69;5104711;28;20030;-63
2021/05/28 02:29:59;;;;;;;25.45;13.68;;;;;;;3.76;100.00;102295.25;5103412;28;20102;-70
2021/05/28 02:32:26;;;;;;;22.85;11.68;;;;;;;3.74;100.00;102296.91;5105230;28;20043;-72
2021/05/28 02:34:52;;;;;;;22.98;12.18;;;;;;;3.69;100.00;102293.09;5102441;28;20024;-69
2021/05/28 02:37:17;;;;;;;23.10;11.90;;;;;;;3.63;100.00;102303.25;5098417;28;20095;-66
2021/05/28 02:39:43;;;;;;;26.00;13.30;;;;;;;3.64;100.00;102305.94;5104240;28;20572;-65
2021/05/28 02:42:09;;;;;;;25.02;13.02;;;;;;;3.62;100.00;102306.66;5103362;28;20024;-65
2021/05/28 02:44:34;;;;;;;27.70;14.80;;;;;;;3.59;100.00;102306.50;5103540;28;20028;-66
2021/05/28 02:46:59;;;;;;;26.85;13.82;;;;;;;3.60;100.00;102313.53;5104381;28;20032;-68
2021/05/28 02:49:25;;;;;;;24.80;12.48;;;;;;;3.59;100.00;102309.09;5102262;28;20024;-65
2021/05/28 02:51:50;;;;;;;25.10;12.93;;;;;;;3.65;100.00;102317.28;5105579;28;20526;-68
2021/05/28 02:54:15;;;;;;;24.33;13.27;;;;;;;3.81;100.00;102314.69;5102089;28;20069;-65
2021/05/28 02:56:41;;;;;;;25.70;13.27;;;;;;;3.98;100.00;102317.38;5104171;28;20028;-66
2021/05/28 02:59:06;;;;;;;27.25;14.57;;;;;;;4.08;100.00;102327.53;5103459;27;20023;-69
2021/05/28 03:01:31;;;;;;;28.02;14.57;;;;;;;4.22;100.00;102327.34;5102848;28;20036;-66
2021/05/28 03:03:57;;;;;;;28.73;14.73;;;;;;;4.26;100.00;102329.34;5104546;28;20024;-65
2021/05/28 03:06:22;;;;;;;26.73;14.13;;;;;;;4.35;100.00;102335.06;5101963;28;20032;-67
2021/05/28 03:08:47;;;;;;;24.75;13.30;;;;;;;4.43;100.00;102333.75;5105014;28;20026;-66
2021/05/28 03:11:13;;;;;;;27.83;15.45;;;;;;;4.40;100.00;102344.06;5102466;28;20028;-69
2021/05/28 03:13:40;;;;;;;27.15;15.05;;;;;;;4.48;100.00;102342.72;5103679;28;20020;-66
2021/05/28 03:16:05;;;;;;;25.25;14.70;;;;;;;4.62;100.00;102340.84;5103024;28;20120;-68
2021/05/28 03:18:45;;;;;;;26.35;15.57;;;;;;;4.75;100.00;102345.03;5102852;28;20024;-69
2021/05/28 03:23:54;;;;;;;26.20;15.80;;;;;;;4.87;100.00;102343.03;5098709;28;20116;-65
2021/05/28 03:26:21;;;;;;;26.02;15.73;;;;;;;4.94;100.00;102346.00;5103672;28;20019;-65
2021/05/28 03:28:46;;;;;;;26.10;15.68;;;;;;;5.00;100.00;102346.28;5101675;28;20418;-66
2021/05/28 03:31:12;;;;;;;26.23;15.35;;;;;;;5.09;100.00;102348.47;5104189;28;20020;-63
2021/05/28 03:33:38;;;;;;;26.83;14.85;;;;;;;5.12;100.00;102339.03;5102447;28;20074;-63
2021/05/28 03:36:05;;;;;;;25.38;14.10;;;;;;;5.09;100.00;102345.84;5102784;28;20032;-63
2021/05/28 03:38:31;;;;;;;25.88;15.05;;;;;;;5.15;100.00;102348.78;5103833;28;20031;-63
2021/05/28 03:40:56;;;;;;;27.98;14.68;;;;;;;5.17;100.00;102348.03;5101587;28;20020;-63
2021/05/28 03:43:22;;;;;;;29.60;15.02;;;;;;;5.24;100.00;102357.09;5104642;28;20051;-63
2021/05/28 03:45:47;;;;;;;28.67;14.48;;;;;;;5.30;100.00;102359.13;5101356;28;20024;-63
2021/05/28 03:48:12;;;;;;;30.33;14.93;;;;;;;5.29;100.00;102359.97;5102364;28;20059;-64
2021/05/28 03:50:38;;;;;;;27.10;15.13;;;;;;;5.35;100.00;102355.03;5105629;28;20027;-64
2021/05/28 03:53:03;;;;;;;27.13;14.88;;;;;;;5.48;100.00;102362.69;5106909;28;20099;-63
2021/05/28 03:55:28;;;;;;;28.80;15.77;;;;;;;5.54;100.00;102369.97;5108048;28;20471;-64
2021/05/28 03:57:54;;;;;;;30.58;16.20;;;;;;;5.63;100.00;102367.78;5105422;28;20372;-64
2021/05/28 04:00:19;;;;;;;29.77;16.02;;;;;;;5.69;100.00;102365.44;5108554;28;20483;-63
2021/05/28 04:02:45;;;;;;;31.13;16.27;;;;;;;5.75;100.00;102360.50;5105793;28;20024;-64
2021/05/28 04:05:11;;;;;;;29.67;17.00;;;;;;;5.89;100.00;102357.63;5107581;28;20028;-64
2021/05/28 04:07:37;;;;;;;32.20;16.95;;;;;;;5.88;100.00;102356.75;5106798;28;20382;-64
2021/05/28 04:10:03;;;;;;;34.85;17.65;;;;;;;5.98;100.00;102359.84;5106338;28;20024;-63
2021/05/28 04:12:28;;;;;;;37.10;19.85;;;;;;;6.01;100.00;102367.84;5107913;28;20481;-63
2021/05/28 04:14:53;;;;;;;43.22;19.95;;;;;;;6.07;100.00;102368.13;5104992;28;20024;-64
2021/05/28 04:17:19;;;;;;;35.95;18.42;;;;;;;6.14;100.00;102364.97;5108611;28;20410;-64
2021/05/28 04:19:44;;;;;;;40.38;20.33;;;;;;;6.14;100.00;102367.59;5105670;28;20431;-64
2021/05/28 04:22:09;;;;;;;41.35;20.42;;;;;;;6.20;100.00;102367.88;5106873;28;20390;-63
2021/05/28 04:24:35;;;;;;;40.38;19.80;;;;;;;6.30;100.00;102378.84;5106757;28;20020;-63
2021/05/28 04:27:00;;;;;;;42.78;20.55;;;;;;;6.29;100.00;102370.03;5105903;28;20056;-63
2021/05/28 04:29:26;;;;;;;44.47;21.60;;;;;;;6.35;100.00;102379.91;5107843;27;20111;-63
2021/05/28 04:31:51;;;;;;;45.80;21.85;;;;;;;6.37;100.00;102376.56;5104778;28;20075;-63
2021/05/28 04:34:17;;;;;;;48.75;20.38;;;;;;;6.47;100.00;102377.88;5107638;28;20020;-63
2021/05/28 04:36:43;;;;;;;44.47;21.27;;;;;;;6.58;100.00;102383.59;5105536;27;20040;-63
2021/05/28 04:39:08;;;;;;;53.60;24.10;;;;;;;6.63;100.00;102387.34;5106957;28;20028;-63
2021/05/28 04:41:33;;;;;;;64.88;25.27;;;;;;;6.67;100.00;102381.41;5106588;28;20026;-63
2021/05/28 04:43:58;;;;;;;54.58;26.80;;;;;;;6.75;100.00;102387.88;5105302;28;20028;-63
2021/05/28 04:46:24;;;;;;;47.35;26.70;;;;;;;6.84;100.00;102382.13;5107910;28;20051;-63
2021/05/28 04:48:49;;;;;;;45.70;26.00;;;;;;;6.97;100.00;102386.22;5100102;28;20048;-63
2021/05/28 04:51:16;;;;;;;54.42;26.10;;;;;;;7.00;100.00;102393.34;5107333;28;20031;-63
2021/05/28 04:53:41;;;;;;;54.88;27.02;;;;;;;7.08;100.00;102381.44;5105622;28;20016;-63
2021/05/28 04:56:07;;;;;;;46.63;25.90;;;;;;;7.17;100.00;102383.56;5105907;28;20386;-63
2021/05/28 04:58:32;;;;;;;60.08;26.58;;;;;;;7.15;100.00;102384.38;5106407;27;20434;-63
2021/05/28 05:00:57;;;;;;;53.88;25.48;;;;;;;7.21;100.00;102393.34;5103759;28;20032;-63
2021/05/28 05:03:23;;;;;;;46.15;26.27;;;;;;;7.24;100.00;102391.78;5107414;28;20024;-63
2021/05/28 05:05:48;;;;;;;48.90;27.63;;;;;;;7.26;100.00;102392.72;5104184;28;20111;-64
2021/05/28 05:08:13;;;;;;;51.50;27.67;;;;;;;7.28;100.00;102395.41;5106679;28;20158;-63
2021/05/28 05:10:39;;;;;;;52.67;27.75;;;;;;;7.28;100.00;102390.16;5105596;28;20382;-64
2021/05/28 05:13:14;;;;;;;40.85;24.48;;;;;;;7.26;100.00;102399.72;5105253;28;20107;-64
2021/05/28 05:15:40;;;;;;;42.13;26.67;;;;;;;7.30;100.00;102402.53;5104954;28;20023;-63
2021/05/28 05:18:07;;;;;;;41.78;26.20;;;;;;;7.34;100.00;102400.97;5105128;28;20082;-63
2021/05/28 05:20:33;;;;;;;44.00;25.45;;;;;;;7.42;100.00;102398.66;5104317;28;20071;-63
2021/05/28 05:22:59;;;;;;;41.10;25.83;;;;;;;7.50;100.00;102399.88;5104473;28;20077;-64
2021/05/28 05:25:24;;;;;;;39.10;25.58;;;;;;;7.62;100.00;102407.38;5107069;28;20027;-63
2021/05/28 05:27:50;;;;;;;37.17;25.08;;;;;;;7.68;100.00;102408.50;5095189;28;20025;-63
2021/05/28 05:30:16;;;;;;;38.15;24.17;;;;;;;7.76;100.00;102416.75;5106438;28;20020;-64
2021/05/28 05:32:41;;;;;;;38.72;25.42;;;;;;;7.82;100.00;102417.00;5104211;28;20054;-64
2021/05/28 05:35:07;;;;;;;36.55;23.10;;;;;;;7.95;100.00;102425.38;5105322;28;20028;-63
2021/05/28 05:37:32;;;;;;;37.05;23.48;;;;;;;8.01;100.00;102421.25;5105849;28;20031;-65
2021/05/28 05:39:58;;;;;;;37.33;23.10;;;;;;;8.06;100.00;102428.44;5103984;28;20020;-65
2021/05/28 05:42:23;;;;;;;35.35;23.25;;;;;;;8.04;100.00;102423.13;5107111;28;20028;-64
2021/05/28 05:44:48;;;;;;;36.00;23.33;;;;;;;7.99;100.00;102427.28;5096513;28;20024;-65
2021/05/28 05:47:14;;;;;;;37.08;23.25;;;;;;;7.95;100.00;102434.19;5094483;28;20016;-65
2021/05/28 05:49:39;;;;;;;42.80;24.17;;;;;;;7.94;100.00;102435.00;5095427;28;20020;-65
2021/05/28 05:52:05;;;;;;;36.30;23.55;;;;;;;8.03;100.00;102434.47;5094057;28;20031;-66
2021/05/28 05:54:32;;;;;;;40.63;25.80;;;;;;;8.08;100.00;102439.94;5094667;28;20024;-65
2021/05/28 05:56:57;;;;;;;39.28;25.25;;;;;;;8.11;100.00;102432.16;5093260;28;20024;-66
2021/05/28 05:59:24;;;;;;;41.20;25.05;;;;;;;8.22;100.00;102448.41;5093955;28;20443;-63
2021/05/28 06:01:49;;;;;;;40.50;24.10;;;;;;;8.41;100.00;102452.66;5093816;28;20107;-65
2021/05/28 06:04:14;;;;;;;39.80;23.85;;;;;;;8.50;100.00;102451.31;5093476;28;20095;-66
2021/05/28 06:06:40;;;;;;;39.83;25.02;;;;;;;8.55;100.00;102457.63;5094346;28;20116;-63
2021/05/28 06:09:06;;;;;;;39.15;23.50;;;;;;;8.57;100.00;102451.53;5093186;28;20020;-63
2021/05/28 06:11:31;;;;;;;36.30;23.38;;;;;;;8.64;100.00;102448.28;5092837;28;20035;-64
2021/05/28 06:13:56;;;;;;;34.80;22.67;;;;;;;8.67;100.00;102444.03;5093387;28;20074;-65
2021/05/28 06:16:22;;;;;;;34.35;21.65;;;;;;;8.82;100.00;102451.59;5096183;28;20032;-64
2021/05/28 06:18:47;;;;;;;32.90;21.65;;;;;;;8.85;100.00;102453.47;5093761;28;20028;-65
2021/05/28 06:21:12;;;;;;;34.97;21.42;;;;;;;8.90;100.00;102458.06;5092654;28;20043;-65
2021/05/28 06:23:38;;;;;;;35.35;21.77;;;;;;;8.84;100.00;102455.22;5093074;28;20024;-64
2021/05/28 06:26:03;;;;;;;32.22;20.67;;;;;;;8.92;100.00;102450.22;5093768;28;20077;-65
2021/05/28 06:28:28;;;;;;;33.45;21.48;;;;;;;9.04;100.00;102450.69;5092142;28;20035;-64
2021/05/28 06:30:54;;;;;;;33.17;21.58;;;;;;;9.20;100.00;102457.41;5093775;28;20024;-64
2021/05/28 06:33:20;;;;;;;32.65;21.15;;;;;;;9.12;100.00;102456.22;5091946;28;20043;-63
2021/05/28 06:35:45;;;;;;;32.28;21.17;;;;;;;8.92;100.00;102459.88;5093041;28;20039;-64
2021/05/28 06:38:10;;;;;;;33.33;21.98;;;;;;;8.97;100.00;102456.56;5092255;28;20155;-64
2021/05/28 06:40:37;;;;;;;31.23;20.85;;;;;;;9.17;100.00;102456.38;5092267;28;20115;-63
2021/05/28 06:43:03;;;;;;;30.02;19.10;;;;;;;9.28;98.64;102454.13;5093178;28;20032;-64
2021/05/28 06:45:28;;;;;;;30.98;19.42;;;;;;;9.39;99.53;102450.09;5093276;28;20031;-64
2021/05/28 06:47:54;;;;;;;29.92;19.80;;;;;;;9.53;97.84;102455.88;5095204;28;20198;-64
2021/05/28 06:50:19;;;;;;;29.88;18.27;;;;;;;9.63;94.73;102460.63;5093191;28;20028;-64
2021/05/28 06:52:46;;;;;;;28.23;18.65;;;;;;;9.71;93.39;102463.50;5072345;28;20067;-65
2021/05/28 06:55:12;;;;;;;29.10;18.88;;;;;;;9.82;91.56;102472.69;5092305;28;20024;-65
2021/05/28 06:57:37;;;;;;;27.70;17.80;;;;;;;9.60;90.81;102471.09;5087828;28;20499;-63
2021/05/28 07:00:05;;;;;;;28.30;18.50;;;;;;;9.58;91.53;102470.13;5095719;28;20124;-65
2021/05/28 07:02:30;;;;;;;29.98;19.50;;;;;;;9.74;93.73;102472.44;5094622;28;20503;-66
2021/05/28 07:04:55;;;;;;;28.92;18.10;;;;;;;9.99;90.38;102475.91;5092011;28;20047;-65
2021/05/28 07:07:20;;;;;;;27.88;18.02;;;;;;;10.22;87.18;102476.66;5095806;28;20104;-66
2021/05/28 07:09:46;;;;;;;28.52;18.05;;;;;;;10.39;85.35;102479.84;5092493;28;20043;-63
2021/05/28 07:12:12;;;;;;;29.45;19.95;;;;;;;10.23;84.66;102483.72;5091845;28;20110;-63
2021/05/28 07:14:37;;;;;;;27.17;17.88;;;;;;;10.39;85.56;102484.25;5093316;28;20024;-63
2021/05/28 07:17:03;;;;;;;27.92;18.77;;;;;;;10.51;84.15;102487.25;5091231;28;20034;-64
2021/05/28 07:19:29;;;;;;;29.63;18.50;;;;;;;10.61;82.95;102484.03;5091092;28;20035;-64
2021/05/28 07:21:54;;;;;;;29.00;19.92;;;;;;;10.64;84.46;102492.09;5092085;28;20034;-64
2021/05/28 07:24:20;;;;;;;28.50;19.58;;;;;;;10.84;84.18;102483.84;5092188;28;20039;-64
2021/05/28 07:26:45;;;;;;;28.05;19.05;;;;;;;11.13;83.35;102483.78;5091809;28;20024;-64
2021/05/28 07:29:10;;;;;;;29.85;20.23;;;;;;;11.38;81.15;102480.03;5091144;28;20052;-64
2021/05/28 07:31:36;;;;;;;28.92;19.83;;;;;;;11.64;80.01;102485.16;5092040;28;20069;-64
2021/05/28 07:34:01;;;;;;;29.15;20.33;;;;;;;11.80;79.40;102486.44;5092051;28;20522;-64
2021/05/28 07:36:27;;;;;;;29.25;21.02;;;;;;;11.84;79.51;102483.91;5091983;28;20092;-64
2021/05/28 07:38:52;;;;;;;28.73;20.42;;;;;;;12.24;78.29;102489.31;5092342;28;20043;-74
2021/05/28 07:41:18;;;;;;;28.23;18.80;;;;;;;12.45;75.62;102494.22;5095366;28;20493;-75
2021/05/28 07:43:44;;;;;;;29.05;19.52;;;;;;;12.29;76.59;102495.63;5090519;28;20028;-75
2021/05/28 07:46:09;;;;;;;28.77;18.58;;;;;;;11.92;76.04;102492.03;5092501;28;20027;-64
2021/05/28 07:48:35;;;;;;;28.48;19.13;;;;;;;11.67;78.35;102486.09;5091079;28;20471;-64
2021/05/28 07:51:00;;;;;;;28.63;18.85;;;;;;;11.50;79.12;102483.03;5092262;28;20027;-64
2021/05/28 07:53:27;;;;;;;28.15;18.95;;;;;;;11.38;78.50;102490.63;5091682;28;20020;-64
2021/05/28 07:55:55;;;;;;;29.33;20.27;;;;;;;11.53;80.91;102490.16;5091401;28;20040;-64
2021/05/28 07:58:20;;;;;;;31.70;22.10;;;;;;;11.51;80.85;102482.16;5088892;28;20071;-64
2021/05/28 08:00:46;;;;;;;29.90;20.70;;;;;;;11.50;81.31;102483.03;5092099;28;20055;-64
2021/05/28 08:03:11;;;;;;;31.27;21.70;;;;;;;11.52;81.44;102477.78;5091442;28;20048;-64
2021/05/28 08:05:37;;;;;;;32.20;23.38;;;;;;;11.58;81.49;102474.41;5092064;28;20028;-64
2021/05/28 08:08:03;;;;;;;33.13;23.20;;;;;;;11.74;83.64;102479.22;5092018;28;20032;-64
2021/05/28 08:10:31;;;;;;;31.58;23.35;;;;;;;11.96;81.83;102474.50;5089933;28;20223;-64
2021/05/28 08:12:57;;;;;;;32.00;22.65;;;;;;;12.15;80.81;102474.06;5092308;28;20020;-64
2021/05/28 08:15:23;;;;;;;31.02;22.00;;;;;;;12.40;78.04;102473.75;5091463;28;20088;-64
2021/05/28 08:17:49;;;;;;;32.38;22.52;;;;;;;12.64;76.61;102473.38;5091921;28;20026;-64
2021/05/28 08:20:16;;;;;;;32.90;22.77;;;;;;;12.81;75.97;102477.28;5090674;28;20523;-63
2021/05/28 08:22:43;;;;;;;32.95;23.05;;;;;;;12.81;76.42;102476.41;5092137;28;20490;-63
2021/05/28 08:25:09;;;;;;;32.75;23.23;;;;;;;12.70;74.31;102473.53;5090408;28;20032;-64
2021/05/28 08:27:34;;;;;;;32.97;23.45;;;;;;;12.65;75.33;102470.75;5091362;28;20107;-63
2021/05/28 08:30:00;;;;;;;32.53;23.30;;;;;;;12.87;75.63;102472.13;5091099;28;20103;-64
2021/05/28 08:32:25;;;;;;;31.38;22.42;;;;;;;12.98;73.13;102461.72;5091483;28;20044;-64
2021/05/28 08:34:51;;;;;;;32.08;22.77;;;;;;;13.22;73.04;102461.31;5090772;28;20031;-64
2021/05/28 08:37:16;;;;;;;33.05;24.08;;;;;;;13.65;73.89;102461.22;5095056;28;20024;-66
2021/05/28 08:39:41;;;;;;;31.13;22.38;;;;;;;13.92;69.71;102466.13;5093384;28;20482;-66
2021/05/28 08:42:09;;;;;;;30.40;21.20;;;;;;;14.22;68.58;102472.78;5094956;28;20066;-65
2021/05/28 08:44:35;;;;;;;30.02;20.42;;;;;;;14.45;65.50;102462.47;5097594;28;20056;-65
2021/05/28 08:47:01;;;;;;;29.75;20.58;;;;;;;14.56;67.92;102467.03;5094674;28;20427;-64
2021/05/28 08:49:26;;;;;;;30.48;20.80;;;;;;;14.34;64.60;102465.84;5096240;28;20024;-66
2021/05/28 08:51:52;;;;;;;30.77;21.33;;;;;;;14.29;65.07;102474.66;5094248;28;20024;-65
2021/05/28 08:54:17;;;;;;;29.15;19.30;;;;;;;14.50;66.89;102474.94;5094813;28;20020;-65
2021/05/28 08:56:46;;;;;;;26.33;16.13;;;;;;;14.66;64.72;102476.09;5095028;28;20050;-66
2021/05/28 08:59:11;;;;;;;28.17;16.98;;;;;;;14.61;63.24;102468.94;5094175;28;20103;-66
2021/05/28 09:01:37;;;;;;;29.50;16.48;;;;;;;14.56;64.46;102475.03;5093994;28;20103;-65
2021/05/28 09:04:04;;;;;;;27.13;17.00;;;;;;;14.41;64.07;102462.41;5095486;28;20031;-66
2021/05/28 09:06:44;;;;;;;26.02;16.58;;;;;;;14.42;66.46;102465.09;5092721;28;20055;-64
2021/05/28 09:09:23;;;;;;;28.20;17.85;;;;;;;14.53;66.89;102467.88;5092014;28;20348;-65
2021/05/28 09:11:57;;;;;;;26.35;16.95;;;;;;;14.97;64.81;102448.97;5103121;28;20115;-65
2021/05/28 09:14:40;;;;;;;27.05;17.25;;;;;;;15.22;64.03;102457.22;5104849;28;20035;-65
2021/05/28 09:17:09;;;;;;;26.20;15.70;;;;;;;15.49;63.57;102445.06;5099413;28;20028;-64
2021/05/28 09:19:35;;;;;;;26.13;15.98;;;;;;;15.86;64.50;102448.09;5106854;28;20024;-65
2021/05/28 09:22:06;;;;;;;24.73;14.35;;;;;;;16.03;60.60;102451.78;5103750;28;20067;-65
2021/05/28 09:24:38;;;;;;;26.00;15.00;;;;;;;16.24;60.42;102450.13;5106779;28;20023;-65
2021/05/28 09:27:27;;;;;;;24.00;14.13;;;;;;;16.18;59.99;102447.41;5103284;28;20036;-65
2021/05/28 09:30:12;;;;;;;24.80;13.95;;;;;;;15.85;60.37;102440.97;5103772;28;20379;-65
2021/05/28 09:32:43;;;;;;;25.05;13.75;;;;;;;15.69;59.68;102447.91;5099619;28;20040;-65
2021/05/28 09:35:11;;;;;;;23.52;11.93;;;;;;;16.06;58.68;102450.00;5100166;28;20060;-65
2021/05/28 09:37:48;;;;;;;23.30;11.93;;;;;;;16.35;58.28;102443.09;5106650;27;20047;-65
2021/05/28 09:40:21;;;;;;;21.67;10.80;;;;;;;16.73;57.63;102445.03;5101111;28;20558;-64
2021/05/28 09:42:56;;;;;;;22.38;10.68;;;;;;;16.94;56.55;102442.47;5105469;28;20077;-65
2021/05/28 09:45:29;;;;;;;23.05;10.18;;;;;;;17.07;54.74;102444.28;5105154;28;20055;-64
2021/05/28 09:47:54;;;;;;;20.27;8.90;;;;;;;17.20;54.22;102439.88;5104211;28;20085;-65
2021/05/28 09:50:19;;;;;;;19.65;8.30;;;;;;;17.53;53.11;102431.00;5104958;28;20036;-65
2021/05/28 09:52:45;;;;;;;21.20;8.55;;;;;;;17.73;52.10;102436.31;5105601;28;20028;-63
2021/05/28 09:55:15;;;;;;;20.27;8.18;;;;;;;17.98;52.96;102430.13;5103104;28;20077;-67
2021/05/28 09:57:43;;;;;;;21.27;7.97;;;;;;;18.25;49.05;102438.09;5106246;28;20028;-67
2021/05/28 10:00:31;;;;;;;21.58;9.68;;;;;;;18.94;50.78;102428.03;5102821;28;20027;-67
2021/05/28 10:03:18;;;;;;;22.92;10.23;;;;;;;19.93;50.01;102419.25;5104292;28;20024;-66
2021/05/28 10:06:10;;;;;;;21.20;9.60;;;;;;;20.85;44.49;102423.59;5100324;28;20020;-69
2021/05/28 10:08:36;;;;;;;21.70;10.30;;;;;;;22.04;42.45;102418.09;5096801;28;20109;-72
2021/05/28 10:11:02;;;;;;;21.08;9.52;;;;;;;22.83;39.77;102414.69;5105995;28;20454;-68
2021/05/28 10:13:28;;;;;;;22.15;9.63;;;;;;;23.91;39.21;102414.84;5102153;28;20030;-69
2021/05/28 10:15:55;;;;;;;21.45;10.20;;;;;;;24.04;36.95;102411.78;5104791;28;20024;-68
2021/05/28 10:18:22;;;;;;;21.27;10.68;;;;;;;23.24;37.54;102410.19;5092996;28;20119;-71
2021/05/28 10:20:50;;;;;;;21.80;10.75;;;;;;;23.85;38.39;102413.16;5093972;28;20024;-68
2021/05/28 10:23:17;;;;;;;20.05;9.02;;;;;;;24.45;36.62;102404.28;5093987;28;20035;-68
2021/05/28 10:25:43;;;;;;;22.70;10.00;;;;;;;24.92;35.33;102407.41;5093937;28;20143;-67
2021/05/28 10:28:16;;;;;;;21.63;9.45;;;;;;;25.05;36.02;102407.91;5093509;28;20024;-66
2021/05/28 10:30:45;;;;;;;20.52;8.65;;;;;;;24.35;35.14;102409.13;5092808;28;20027;-67
2021/05/28 10:33:24;;;;;;;21.83;10.15;;;;;;;24.17;38.70;102410.50;5092294;28;20522;-65
2021/05/28 10:35:56;;;;;;;20.25;8.48;;;;;;;24.25;36.06;102405.78;5095164;28;20067;-65
2021/05/28 10:38:51;;;;;;;19.23;8.43;;;;;;;24.71;35.75;102409.88;5089024;28;20024;-65
2021/05/28 10:41:20;;;;;;;21.17;9.35;;;;;;;25.49;34.14;102413.72;5095106;28;20024;-65
2021/05/28 10:43:48;;;;;;;20.50;9.52;;;;;;;25.16;35.23;102412.97;5092015;28;20084;-65
2021/05/28 10:46:14;;;;;;;21.83;9.23;;;;;;;25.13;34.08;102399.53;5094830;28;20095;-66
2021/05/28 10:48:40;;;;;;;20.08;8.27;;;;;;;25.37;33.80;102408.72;5093356;28;20107;-64
2021/05/28 10:51:14;;;;;;;19.88;8.15;;;;;;;25.66;33.50;102399.59;5093409;28;20024;-65
2021/05/28 10:53:40;;;;;;;20.35;8.38;;;;;;;26.97;31.44;102399.31;5092264;28;20110;-67
2021/05/28 10:56:13;;;;;;;20.65;9.15;;;;;;;27.64;30.91;102405.59;5090691;28;20118;-66
2021/05/28 10:58:57;;;;;;;20.27;8.65;;;;;;;28.49;30.99;102399.94;5091353;28;20055;-64
2021/05/28 11:01:32;;;;;;;19.98;8.95;;;;;;;29.46;28.68;102397.09;5092886;28;20035;-66
2021/05/28 11:04:05;;;;;;;19.60;8.30;;;;;;;30.15;26.89;102399.91;5090568;28;20036;-68
2021/05/28 11:06:32;;;;;;;20.25;7.90;;;;;;;30.43;25.48;102385.66;5091741;28;20030;-67
2021/05/28 11:09:05;;;;;;;19.08;7.88;;;;;;;30.97;26.13;102385.31;5092612;28;20028;-68
2021/05/28 11:11:37;;;;;;;18.67;7.30;;;;;;;31.21;24.62;102387.63;5093211;28;20106;-67